createdAt,value
2022-08-26T00:00:19.262Z,71.80
2022-08-26T00:03:07.913Z,71.77
2022-08-26T00:05:41.568Z,71.89
2022-08-26T00:08:15.309Z,72.03
2022-08-26T00:10:47.172Z,72.16
2022-08-26T00:13:20.415Z,72.33
2022-08-26T00:15:52.971Z,72.55
2022-08-26T00:18:24.989Z,72.67
2022-08-26T00:20:57.921Z,72.75
2022-08-26T00:23:32.410Z,72.85
2022-08-26T00:26:05.883Z,72.91
2022-08-26T00:28:40.901Z,73.01
2022-08-26T00:31:12.768Z,73.19
2022-08-26T00:33:46.350Z,73.30
2022-08-26T00:36:20.215Z,73.54
2022-08-26T00:38:52.905Z,73.40
2022-08-26T00:41:24.751Z,73.40
2022-08-26T00:44:00.131Z,73.61
2022-08-26T00:46:35.418Z,73.59
2022-08-26T00:49:13.077Z,73.63
2022-08-26T00:51:50.733Z,73.64
2022-08-26T00:54:26.917Z,73.74
2022-08-26T00:57:02.132Z,73.86
2022-08-26T00:59:35.072Z,73.98
2022-08-26T01:02:20.191Z,74.03
2022-08-26T01:04:57.243Z,74.06
2022-08-26T01:07:34.702Z,74.00
2022-08-26T01:10:20.365Z,74.23
2022-08-26T01:12:57.448Z,74.14
2022-08-26T01:15:32.943Z,74.25
2022-08-26T01:18:06.907Z,74.35
2022-08-26T01:20:57.711Z,74.69
2022-08-26T01:23:33.869Z,74.58
2022-08-26T01:26:19.833Z,74.72
2022-08-26T01:28:55.643Z,74.62
2022-08-26T01:31:39.071Z,74.73
2022-08-26T01:34:18.254Z,74.65
2022-08-26T01:36:54.441Z,74.64
2022-08-26T01:39:26.866Z,74.78
2022-08-26T01:42:03.208Z,74.64
2022-08-26T01:44:41.779Z,74.89
2022-08-26T01:47:16.125Z,74.84
2022-08-26T01:49:53.635Z,74.73
2022-08-26T01:52:29.740Z,75.02
2022-08-26T01:55:02.162Z,75.07
2022-08-26T01:57:34.280Z,75.25
2022-08-26T02:00:13.310Z,75.23
2022-08-26T02:03:15.110Z,75.40
2022-08-26T02:05:51.330Z,75.50
2022-08-26T02:08:28.073Z,75.40
2022-08-26T02:11:00.254Z,75.53
2022-08-26T02:13:38.470Z,75.69
2022-08-26T02:16:13.705Z,75.67
2022-08-26T02:18:47.240Z,75.92
2022-08-26T02:21:19.404Z,76.07
2022-08-26T02:23:53.020Z,76.23
2022-08-26T02:26:28.384Z,76.17
2022-08-26T02:29:07.970Z,76.56
2022-08-26T02:31:39.937Z,76.87
2022-08-26T02:34:15.822Z,76.72
2022-08-26T02:36:47.853Z,76.84
2022-08-26T02:39:22.101Z,77.03
2022-08-26T02:41:54.212Z,77.63
2022-08-26T02:44:27.921Z,77.41
2022-08-26T02:47:00.534Z,77.56
2022-08-26T02:49:32.468Z,78.04
2022-08-26T02:52:06.633Z,77.67
2022-08-26T02:54:39.265Z,77.70
2022-08-26T02:57:11.342Z,77.56
2022-08-26T02:59:43.646Z,77.46
2022-08-26T03:02:17.439Z,77.46
2022-08-26T03:04:57.754Z,77.74
2022-08-26T03:07:33.953Z,77.51
2022-08-26T03:10:12.521Z,77.73
2022-08-26T03:12:47.504Z,77.56
2022-08-26T03:15:22.010Z,77.48
2022-08-26T03:17:53.971Z,77.76
2022-08-26T03:20:31.605Z,78.32
2022-08-26T03:23:03.536Z,78.33
2022-08-26T03:25:36.323Z,78.37
2022-08-26T03:28:09.674Z,78.48
2022-08-26T03:30:44.897Z,78.53
2022-08-26T03:33:17.477Z,78.71
2022-08-26T03:35:50.545Z,78.65
2022-08-26T03:38:25.234Z,78.74
2022-08-26T03:41:00.563Z,78.58
2022-08-26T03:43:33.339Z,78.49
2022-08-26T03:46:10.450Z,78.65
2022-08-26T03:48:42.583Z,78.84
2022-08-26T03:51:19.999Z,78.88
2022-08-26T03:53:52.941Z,79.24
2022-08-26T03:56:25.857Z,79.15
2022-08-26T03:58:58.214Z,79.10
2022-08-26T04:01:33.931Z,79.27
2022-08-26T04:04:07.201Z,79.37
2022-08-26T04:06:44.758Z,79.34
2022-08-26T04:09:19.835Z,79.71
2022-08-26T04:11:54.541Z,79.71
2022-08-26T04:14:28.285Z,80.36
2022-08-26T04:17:00.222Z,80.44
2022-08-26T04:19:34.916Z,80.33
2022-08-26T04:22:08.609Z,80.06
2022-08-26T04:24:41.539Z,80.28
2022-08-26T04:27:13.787Z,80.37
2022-08-26T04:29:47.726Z,80.56
2022-08-26T04:32:20.915Z,80.39
2022-08-26T04:34:52.973Z,80.05
2022-08-26T04:37:25.276Z,80.44
2022-08-26T04:39:57.644Z,79.92
2022-08-26T04:42:32.637Z,80.07
2022-08-26T04:45:05.916Z,80.05
2022-08-26T04:47:42.303Z,79.72
2022-08-26T04:50:15.385Z,79.92
2022-08-26T04:52:50.087Z,79.78
2022-08-26T04:55:21.969Z,79.98
2022-08-26T04:58:10.646Z,79.66
2022-08-26T05:00:44.181Z,79.89
2022-08-26T05:03:18.222Z,79.66
2022-08-26T05:05:52.397Z,79.60
2022-08-26T05:08:24.979Z,79.41
2022-08-26T05:10:58.020Z,79.55
2022-08-26T05:13:31.333Z,80.04
2022-08-26T05:16:13.848Z,79.84
2022-08-26T05:18:47.487Z,80.23
2022-08-26T05:21:25.262Z,80.08
2022-08-26T05:24:00.561Z,79.88
2022-08-26T05:26:33.837Z,80.03
2022-08-26T05:29:06.689Z,80.06
2022-08-26T05:31:38.982Z,79.81
2022-08-26T05:34:11.635Z,79.73
2022-08-26T05:39:10.350Z,79.72
2022-08-26T05:41:44.853Z,79.77
2022-08-26T05:44:20.363Z,79.69
2022-08-26T05:46:54.576Z,79.49
2022-08-26T05:49:26.776Z,79.35
2022-08-26T05:51:58.811Z,79.14
2022-08-26T05:54:30.839Z,78.86
2022-08-26T05:57:02.943Z,78.92
2022-08-26T05:59:35.554Z,78.65
2022-08-26T06:02:10.801Z,78.56
2022-08-26T06:04:45.254Z,78.33
2022-08-26T06:07:17.270Z,78.34
2022-08-26T06:09:50.676Z,78.35
2022-08-26T06:12:22.519Z,77.85
2022-08-26T06:14:55.163Z,77.56
2022-08-26T06:17:27.061Z,77.30
2022-08-26T06:19:58.867Z,77.35
2022-08-26T06:22:48.564Z,77.06
2022-08-26T06:25:37.845Z,76.50
2022-08-26T06:28:10.264Z,76.55
2022-08-26T06:30:48.977Z,76.31
2022-08-26T06:33:21.604Z,76.13
2022-08-26T06:35:54.081Z,75.69
2022-08-26T06:38:26.434Z,75.38
2022-08-26T06:41:00.298Z,74.53
2022-08-26T06:43:32.381Z,74.72
2022-08-26T06:46:07.689Z,74.47
2022-08-26T06:48:41.165Z,73.90
2022-08-26T06:51:18.602Z,73.18
2022-08-26T06:53:53.387Z,73.08
2022-08-26T06:56:28.712Z,73.28
2022-08-26T06:59:00.699Z,73.29
2022-08-26T07:01:35.023Z,73.58
2022-08-26T07:04:10.594Z,73.16
2022-08-26T07:06:47.216Z,72.82
2022-08-26T07:09:19.459Z,73.34
2022-08-26T07:11:53.234Z,72.85
2022-08-26T07:14:26.165Z,72.76
2022-08-26T07:16:59.576Z,71.77
2022-08-26T07:19:31.939Z,72.20
2022-08-26T07:22:07.230Z,70.73
2022-08-26T07:24:42.470Z,71.28
2022-08-26T07:27:17.298Z,71.57
2022-08-26T07:29:49.722Z,71.28
2022-08-26T07:32:22.978Z,71.53
2022-08-26T07:34:55.032Z,70.62
2022-08-26T07:37:27.048Z,70.12
2022-08-26T07:40:02.881Z,70.01
2022-08-26T07:42:38.785Z,71.24
2022-08-26T07:45:11.421Z,70.60
2022-08-26T07:47:43.594Z,70.05
2022-08-26T07:50:47.085Z,69.28
2022-08-26T07:53:18.034Z,69.10
2022-08-26T07:55:50.741Z,70.34
2022-08-26T07:58:22.644Z,69.33
2022-08-26T08:00:54.563Z,68.86
2022-08-26T08:03:26.499Z,68.13
2022-08-26T08:05:58.751Z,67.55
2022-08-26T08:08:31.561Z,68.63
2022-08-26T08:11:03.532Z,68.68
2022-08-26T08:13:38.188Z,67.77
2022-08-26T08:16:12.485Z,67.95
2022-08-26T08:18:44.805Z,66.80
2022-08-26T08:21:21.803Z,65.61
2022-08-26T08:23:57.932Z,66.04
2022-08-26T08:26:30.346Z,66.83
2022-08-26T08:29:02.384Z,66.59
2022-08-26T08:34:29.511Z,65.63
2022-08-26T08:37:01.540Z,63.68
2022-08-26T08:39:36.370Z,64.71
2022-08-26T08:42:35.618Z,64.64
2022-08-26T08:45:12.687Z,63.80
2022-08-26T08:47:50.456Z,62.12
2022-08-26T08:50:34.764Z,62.00
2022-08-26T08:53:14.386Z,62.85
2022-08-26T08:56:05.765Z,62.68
2022-08-26T08:58:52.051Z,61.04
2022-08-26T09:01:38.166Z,61.17
2022-08-26T09:04:40.177Z,61.91
2022-08-26T09:07:18.602Z,60.69
2022-08-26T09:10:18.843Z,61.02
2022-08-26T09:13:00.873Z,61.14
2022-08-26T09:15:43.689Z,60.49
2022-08-26T09:18:31.434Z,61.05
2022-08-26T09:22:09.575Z,60.61
2022-08-26T09:24:48.398Z,58.83
2022-08-26T09:27:39.234Z,58.34
2022-08-26T09:30:19.621Z,58.89
2022-08-26T09:33:03.060Z,58.92
2022-08-26T09:35:47.288Z,56.26
2022-08-26T09:38:26.891Z,57.87
2022-08-26T09:41:03.742Z,58.85
2022-08-26T09:43:37.096Z,58.86
2022-08-26T09:46:19.943Z,56.78
2022-08-26T09:48:53.209Z,57.01
2022-08-26T09:51:34.749Z,55.19
2022-08-26T09:54:08.076Z,56.08
2022-08-26T09:56:42.898Z,54.44
2022-08-26T09:59:15.311Z,54.91
2022-08-26T10:01:52.628Z,55.53
2022-08-26T10:04:27.127Z,56.00
2022-08-26T10:07:00.908Z,52.89
2022-08-26T10:09:37.570Z,54.08
2022-08-26T10:12:17.130Z,53.12
2022-08-26T10:14:53.341Z,52.12
2022-08-26T10:17:32.750Z,53.70
2022-08-26T10:20:22.581Z,53.38
2022-08-26T10:23:00.554Z,53.52
2022-08-26T10:25:38.852Z,51.95
2022-08-26T10:28:21.793Z,52.80
2022-08-26T10:31:02.011Z,52.46
2022-08-26T10:33:34.194Z,50.26
2022-08-26T10:36:36.408Z,50.26
2022-08-26T10:39:21.174Z,49.61
2022-08-26T10:41:57.703Z,45.82
2022-08-26T10:44:34.004Z,48.03
2022-08-26T10:47:10.960Z,48.73
2022-08-26T10:49:44.406Z,49.86
2022-08-26T10:52:23.112Z,49.44
2022-08-26T10:55:08.486Z,49.08
2022-08-26T10:57:50.371Z,47.87
2022-08-26T11:00:46.557Z,45.58
2022-08-26T11:03:32.846Z,45.59
2022-08-26T11:06:25.191Z,46.88
2022-08-26T11:08:58.642Z,46.65
2022-08-26T11:11:47.838Z,45.35
2022-08-26T11:14:53.725Z,45.14
2022-08-26T11:18:07.535Z,43.44
2022-08-26T11:20:41.814Z,41.42
2022-08-26T11:23:50.545Z,42.07
2022-08-26T11:26:55.397Z,42.42
2022-08-26T11:29:59.782Z,40.86
2022-08-26T11:32:48.882Z,43.27
2022-08-26T11:35:48.438Z,43.39
2022-08-26T11:38:27.194Z,43.84
2022-08-26T11:41:09.990Z,39.05
2022-08-26T11:43:43.676Z,42.31
2022-08-26T11:46:24.851Z,42.17
2022-08-26T11:49:06.938Z,39.81
2022-08-26T11:51:48.352Z,39.98
2022-08-26T11:54:32.714Z,40.71
2022-08-26T11:57:14.057Z,39.19
2022-08-26T11:59:46.156Z,40.79
2022-08-26T12:02:19.450Z,39.11
2022-08-26T12:04:54.753Z,40.39
2022-08-26T12:07:29.121Z,39.94
2022-08-26T12:10:02.623Z,38.28
2022-08-26T12:12:37.582Z,38.59
2022-08-26T12:15:15.343Z,38.31
2022-08-26T12:17:52.980Z,38.24
2022-08-26T12:20:48.414Z,36.87
2022-08-26T12:23:36.848Z,36.84
2022-08-26T12:26:12.091Z,36.96
2022-08-26T12:28:51.784Z,37.37
2022-08-26T12:31:30.392Z,37.25
2022-08-26T12:34:04.966Z,37.35
2022-08-26T12:36:40.463Z,36.13
2022-08-26T12:39:15.036Z,36.73
2022-08-26T12:41:52.619Z,36.93
2022-08-26T12:44:53.117Z,37.21
2022-08-26T12:47:41.958Z,36.81
2022-08-26T12:50:25.433Z,35.05
2022-08-26T12:53:01.627Z,36.03
2022-08-26T12:55:44.051Z,35.37
2022-08-26T12:58:31.823Z,35.41
2022-08-26T13:01:25.458Z,36.40
2022-08-26T13:03:58.104Z,35.20
2022-08-26T13:06:31.656Z,36.04
2022-08-26T13:09:06.299Z,34.99
2022-08-26T13:12:02.315Z,34.99
2022-08-26T13:14:34.520Z,35.33
2022-08-26T13:17:06.513Z,35.19
2022-08-26T13:19:38.388Z,34.70
2022-08-26T13:22:13.097Z,35.25
2022-08-26T13:24:45.877Z,34.99
2022-08-26T13:27:20.730Z,35.45
2022-08-26T13:29:53.335Z,35.54
2022-08-26T13:32:27.482Z,35.08
2022-08-26T13:35:00.644Z,35.80
2022-08-26T13:37:37.517Z,35.06
2022-08-26T13:40:13.269Z,35.50
2022-08-26T13:42:49.483Z,34.71
2022-08-26T13:45:21.997Z,35.18
2022-08-26T13:47:54.136Z,34.63
2022-08-26T13:50:26.176Z,35.04
2022-08-26T13:52:58.266Z,35.07
2022-08-26T13:55:30.330Z,34.59
2022-08-26T13:58:02.324Z,34.26
2022-08-26T14:00:34.299Z,34.49
2022-08-26T14:03:10.159Z,34.76
2022-08-26T14:05:44.577Z,34.88
2022-08-26T14:08:16.538Z,34.88
2022-08-26T14:13:25.542Z,34.36
2022-08-26T14:15:58.839Z,34.42
2022-08-26T14:18:35.501Z,34.08
2022-08-26T14:21:12.932Z,32.42
2022-08-26T14:23:44.980Z,31.96
2022-08-26T14:26:28.435Z,32.96
2022-08-26T14:29:03.921Z,33.46
2022-08-26T14:31:37.962Z,33.77
2022-08-26T14:34:10.844Z,31.95
2022-08-26T14:36:42.697Z,32.32
2022-08-26T14:39:15.642Z,32.31
2022-08-26T14:41:53.960Z,31.57
2022-08-26T14:44:30.678Z,32.62
2022-08-26T14:47:06.191Z,32.87
2022-08-26T14:49:39.189Z,32.61
2022-08-26T14:52:11.198Z,32.06
2022-08-26T14:54:43.130Z,32.59
2022-08-26T14:57:16.185Z,32.41
2022-08-26T14:59:50.625Z,32.50
2022-08-26T15:02:33.048Z,32.50
2022-08-26T15:05:08.642Z,32.74
2022-08-26T15:07:40.858Z,31.97
2022-08-26T15:10:21.394Z,31.92
2022-08-26T15:12:53.332Z,32.63
2022-08-26T15:15:25.277Z,32.94
2022-08-26T15:17:57.380Z,32.32
2022-08-26T15:23:08.758Z,32.40
2022-08-26T15:25:41.218Z,32.06
2022-08-26T15:28:13.228Z,31.77
2022-08-26T15:30:47.555Z,31.59
2022-08-26T15:33:19.623Z,31.68
2022-08-26T15:35:51.839Z,31.76
2022-08-26T15:38:23.650Z,31.56
2022-08-26T15:40:58.750Z,31.63
2022-08-26T15:43:34.612Z,31.83
2022-08-26T15:46:11.040Z,31.75
2022-08-26T15:48:43.494Z,31.66
2022-08-26T15:51:24.721Z,31.62
2022-08-26T15:53:57.683Z,32.06
2022-08-26T15:56:31.583Z,32.11
2022-08-26T15:59:05.202Z,32.23
2022-08-26T16:01:39.877Z,32.22
2022-08-26T16:04:11.992Z,32.34
2022-08-26T16:06:44.513Z,32.32
2022-08-26T16:09:16.353Z,32.28
2022-08-26T16:11:50.624Z,32.43
2022-08-26T16:14:22.943Z,32.47
2022-08-26T16:16:56.387Z,32.62
2022-08-26T16:19:28.426Z,32.55
2022-08-26T16:22:01.244Z,32.69
2022-08-26T16:24:33.351Z,32.44
2022-08-26T16:27:05.716Z,32.67
2022-08-26T16:29:39.430Z,33.05
2022-08-26T16:32:11.352Z,33.15
2022-08-26T16:34:56.119Z,33.15
2022-08-26T16:37:29.221Z,33.18
2022-08-26T16:40:01.141Z,33.15
2022-08-26T16:42:34.011Z,33.13
2022-08-26T16:45:08.472Z,33.47
2022-08-26T16:47:40.793Z,33.46
2022-08-26T16:50:17.174Z,33.69
2022-08-26T16:52:54.262Z,33.84
2022-08-26T16:55:27.767Z,33.90
2022-08-26T16:57:59.839Z,34.11
2022-08-26T17:00:34.221Z,34.38
2022-08-26T17:03:08.731Z,34.35
2022-08-26T17:05:40.971Z,34.51
2022-08-26T17:08:24.221Z,34.63
2022-08-26T17:11:01.638Z,34.81
2022-08-26T17:13:35.474Z,35.04
2022-08-26T17:16:10.849Z,35.32
2022-08-26T17:18:42.902Z,35.52
2022-08-26T17:21:15.836Z,35.92
2022-08-26T17:23:48.188Z,36.02
2022-08-26T17:26:20.415Z,36.07
2022-08-26T17:28:52.362Z,36.27
2022-08-26T17:31:25.153Z,36.53
2022-08-26T17:33:57.148Z,36.63
2022-08-26T17:36:28.957Z,36.82
2022-08-26T17:39:01.100Z,36.95
2022-08-26T17:41:33.195Z,36.85
2022-08-26T17:44:07.872Z,37.24
2022-08-26T17:46:39.859Z,37.42
2022-08-26T17:49:11.734Z,37.72
2022-08-26T17:51:42.178Z,37.98
2022-08-26T17:54:14.043Z,38.29
2022-08-26T17:56:46.044Z,38.67
2022-08-26T17:59:18.056Z,39.04
2022-08-26T18:01:50.135Z,39.10
2022-08-26T18:04:22.677Z,39.32
2022-08-26T18:06:54.552Z,39.69
2022-08-26T18:09:26.535Z,39.92
2022-08-26T18:11:58.647Z,40.49
2022-08-26T18:14:30.913Z,40.80
2022-08-26T18:17:03.013Z,41.28
2022-08-26T18:19:34.991Z,41.87
2022-08-26T18:22:07.039Z,42.12
2022-08-26T18:24:39.007Z,42.66
2022-08-26T18:27:11.080Z,42.99
2022-08-26T18:29:45.450Z,43.19
2022-08-26T18:32:17.944Z,43.63
2022-08-26T18:34:49.763Z,43.63
2022-08-26T18:37:21.571Z,43.86
2022-08-26T18:39:53.454Z,44.12
2022-08-26T18:42:25.435Z,44.36
2022-08-26T18:44:58.207Z,44.60
2022-08-26T18:47:31.115Z,44.71
2022-08-26T18:50:08.332Z,44.93
2022-08-26T18:52:40.610Z,45.69
2022-08-26T18:55:12.651Z,45.88
2022-08-26T18:57:44.617Z,46.02
2022-08-26T19:00:24.091Z,46.11
2022-08-26T19:02:56.206Z,46.10
2022-08-26T19:05:28.251Z,46.31
2022-08-26T19:08:00.162Z,46.59
2022-08-26T19:10:33.105Z,46.48
2022-08-26T19:13:05.179Z,46.34
2022-08-26T19:15:42.250Z,46.42
2022-08-26T19:18:16.002Z,46.34
2022-08-26T19:20:49.869Z,46.89
2022-08-26T19:23:31.842Z,46.58
2022-08-26T19:26:07.007Z,46.44
2022-08-26T19:28:40.876Z,46.28
2022-08-26T19:31:13.707Z,46.45
2022-08-26T19:33:46.350Z,46.59
2022-08-26T19:36:21.975Z,47.01
2022-08-26T19:38:54.795Z,47.31
2022-08-26T19:41:37.303Z,47.77
2022-08-26T19:44:12.997Z,47.86
2022-08-26T19:46:44.867Z,48.07
2022-08-26T19:49:16.722Z,48.17
2022-08-26T19:51:49.299Z,48.20
2022-08-26T19:54:22.774Z,48.46
2022-08-26T19:56:54.712Z,48.79
2022-08-26T19:59:26.526Z,48.95
2022-08-26T20:02:01.064Z,49.49
2022-08-26T20:04:34.461Z,49.73
2022-08-26T20:07:06.539Z,49.86
2022-08-26T20:09:39.687Z,50.22
2022-08-26T20:12:12.503Z,50.26
2022-08-26T20:14:44.763Z,50.43
2022-08-26T20:17:17.247Z,50.65
2022-08-26T20:20:06.803Z,50.57
2022-08-26T20:22:58.933Z,50.86
2022-08-26T20:25:32.647Z,51.00
2022-08-26T20:28:05.292Z,51.84
2022-08-26T20:30:37.343Z,51.35
2022-08-26T20:33:09.178Z,51.56
2022-08-26T20:35:42.684Z,52.21
2022-08-26T20:38:16.634Z,51.63
2022-08-26T20:40:51.323Z,52.04
2022-08-26T20:43:28.147Z,52.20
2022-08-26T20:46:00.050Z,52.19
2022-08-26T20:48:32.685Z,52.23
2022-08-26T20:51:05.646Z,51.88
2022-08-26T20:53:38.873Z,52.10
2022-08-26T20:56:13.550Z,52.55
2022-08-26T20:58:45.582Z,52.51
2022-08-26T21:01:22.502Z,52.71
2022-08-26T21:03:56.536Z,52.78
2022-08-26T21:06:28.672Z,52.43
2022-08-26T21:09:01.634Z,52.50
2022-08-26T21:11:33.805Z,52.28
2022-08-26T21:14:16.602Z,52.26
2022-08-26T21:16:49.533Z,52.17
2022-08-26T21:19:21.885Z,51.99
2022-08-26T21:21:53.866Z,52.21
2022-08-26T21:24:25.778Z,52.13
2022-08-26T21:26:57.820Z,52.01
2022-08-26T21:29:29.997Z,51.92
2022-08-26T21:32:02.036Z,51.98
2022-08-26T21:34:34.074Z,51.92
2022-08-26T21:37:08.995Z,52.01
2022-08-26T21:39:48.928Z,51.79
2022-08-26T21:42:20.836Z,51.77
2022-08-26T21:44:53.551Z,51.68
2022-08-26T21:47:25.979Z,51.73
2022-08-26T21:49:58.220Z,51.85
2022-08-26T21:52:30.155Z,51.80
2022-08-26T21:55:04.318Z,51.89
2022-08-26T21:57:41.049Z,51.93
2022-08-26T22:00:19.626Z,52.02
2022-08-26T22:02:51.463Z,52.02
2022-08-26T22:05:24.202Z,52.04
2022-08-26T22:07:56.581Z,52.46
2022-08-26T22:10:34.148Z,52.53
2022-08-26T22:13:06.575Z,52.84
2022-08-26T22:15:41.483Z,52.82
2022-08-26T22:18:13.444Z,53.11
2022-08-26T22:20:48.153Z,53.55
2022-08-26T22:23:20.448Z,53.29
2022-08-26T22:25:52.464Z,53.08
2022-08-26T22:28:24.366Z,53.25
2022-08-26T22:31:00.872Z,54.16
2022-08-26T22:33:37.815Z,54.09
2022-08-26T22:36:16.109Z,53.68
2022-08-26T22:38:48.765Z,53.55
2022-08-26T22:41:23.068Z,53.96
2022-08-26T22:43:55.066Z,53.79
2022-08-26T22:46:28.416Z,53.78
2022-08-26T22:49:00.229Z,53.96
2022-08-26T22:51:33.163Z,54.19
2022-08-26T22:54:05.180Z,55.07
2022-08-26T22:56:37.655Z,54.51
2022-08-26T22:59:10.313Z,55.13
2022-08-26T23:01:46.461Z,55.36
2022-08-26T23:04:18.758Z,55.19
2022-08-26T23:06:50.805Z,55.25
2022-08-26T23:09:22.732Z,55.07
2022-08-26T23:11:56.101Z,55.22
2022-08-26T23:14:28.292Z,55.63
2022-08-26T23:17:00.315Z,55.63
2022-08-26T23:19:32.336Z,55.51
2022-08-26T23:22:04.460Z,55.82
2022-08-26T23:24:36.783Z,55.92
2022-08-26T23:27:09.233Z,56.14
2022-08-26T23:29:41.246Z,56.02
2022-08-26T23:32:14.303Z,56.35
2022-08-26T23:34:59.125Z,56.14
2022-08-26T23:37:35.891Z,56.20
2022-08-26T23:40:17.158Z,56.21
2022-08-26T23:42:50.050Z,56.37
2022-08-26T23:45:23.146Z,56.43
2022-08-26T23:47:55.520Z,56.52
2022-08-26T23:50:49.809Z,56.53
2022-08-26T23:53:24.480Z,56.50
2022-08-26T23:55:56.379Z,56.51
2022-08-26T23:58:28.320Z,56.64
